createdAt,value
2023-04-18T00:01:23.940Z,102931.16
2023-04-18T00:03:51.242Z,102921.41
2023-04-18T00:06:18.359Z,102906.22
2023-04-18T00:08:44.942Z,102903.66
2023-04-18T00:11:11.567Z,102919.16
2023-04-18T00:13:39.649Z,102911.78
2023-04-18T00:16:08.066Z,102915.19
2023-04-18T00:18:36.979Z,102931.03
2023-04-18T00:21:04.672Z,102887.47
2023-04-18T00:23:31.380Z,102895.25
2023-04-18T00:25:57.987Z,102928.78
2023-04-18T00:28:25.456Z,102914.50
2023-04-18T00:30:52.120Z,102913.66
2023-04-18T00:33:18.844Z,102893.78
2023-04-18T00:35:45.642Z,102891.47
2023-04-18T00:38:12.163Z,102923.09
2023-04-18T00:40:41.154Z,102938.81
2023-04-18T00:43:08.592Z,102926.78
2023-04-18T00:45:35.517Z,102918.28
2023-04-18T00:48:02.257Z,102909.50
2023-04-18T00:50:29.051Z,102890.84
2023-04-18T00:52:56.381Z,102916.59
2023-04-18T00:55:24.266Z,102913.09
2023-04-18T00:57:52.106Z,102935.06
2023-04-18T01:00:18.897Z,102905.88
2023-04-18T01:02:47.068Z,102929.16
2023-04-18T01:05:13.994Z,102918.09
2023-04-18T01:07:41.679Z,102920.84
2023-04-18T01:10:10.298Z,102925.16
2023-04-18T01:12:37.778Z,102930.41
2023-04-18T01:15:08.214Z,102919.22
2023-04-18T01:17:35.675Z,102909.63
2023-04-18T01:20:05.589Z,102931.34
2023-04-18T01:22:33.231Z,102871.31
2023-04-18T01:25:00.018Z,102885.09
2023-04-18T01:27:26.798Z,102915.25
2023-04-18T01:29:53.579Z,102904.09
2023-04-18T01:32:20.668Z,102898.13
2023-04-18T01:34:47.817Z,102930.38
2023-04-18T01:37:14.767Z,102908.56
2023-04-18T01:39:41.661Z,102912.81
2023-04-18T01:42:08.625Z,102914.84
2023-04-18T01:44:35.392Z,102918.03
2023-04-18T01:47:02.051Z,102924.94
2023-04-18T01:49:29.025Z,102909.38
2023-04-18T01:51:55.648Z,102922.50
2023-04-18T01:54:22.271Z,102920.72
2023-04-18T01:56:49.004Z,102909.38
2023-04-18T01:59:15.638Z,102892.19
2023-04-18T02:01:42.510Z,102892.84
2023-04-18T02:04:09.242Z,102911.00
2023-04-18T02:06:36.014Z,102922.88
2023-04-18T02:09:02.701Z,102910.19
2023-04-18T02:11:30.132Z,102882.59
2023-04-18T02:13:56.725Z,102909.94
2023-04-18T02:16:23.399Z,102919.22
2023-04-18T02:18:52.936Z,102926.16
2023-04-18T02:21:19.528Z,102908.88
2023-04-18T02:23:46.152Z,102915.00
2023-04-18T02:26:13.117Z,102906.06
2023-04-18T02:28:39.894Z,102916.44
2023-04-18T02:31:07.376Z,102919.13
2023-04-18T02:33:34.153Z,102899.28
2023-04-18T02:36:01.839Z,102885.41
2023-04-18T02:38:28.460Z,102910.34
2023-04-18T02:40:56.164Z,102910.44
2023-04-18T02:43:22.849Z,102916.25
2023-04-18T02:45:49.543Z,102925.69
2023-04-18T02:48:16.354Z,102892.84
2023-04-18T02:50:42.962Z,102917.91
2023-04-18T02:53:09.545Z,102911.97
2023-04-18T02:55:37.215Z,102902.28
2023-04-18T02:58:03.816Z,102907.41
2023-04-18T03:00:30.553Z,102930.81
2023-04-18T03:02:57.627Z,102882.50
2023-04-18T03:05:24.755Z,102930.81
2023-04-18T03:07:51.472Z,102912.63
2023-04-18T03:10:18.427Z,102927.28
2023-04-18T03:12:45.007Z,102915.41
2023-04-18T03:15:11.832Z,102911.59
2023-04-18T03:17:39.443Z,102904.16
2023-04-18T03:20:08.149Z,102922.25
2023-04-18T03:22:35.159Z,102897.31
2023-04-18T03:25:02.155Z,102929.00
2023-04-18T03:27:28.790Z,102935.13
2023-04-18T03:29:55.510Z,102927.28
2023-04-18T03:32:22.433Z,102920.78
2023-04-18T03:34:49.458Z,102921.59
2023-04-18T03:37:16.039Z,102944.09
2023-04-18T03:39:42.833Z,102929.25
2023-04-18T03:42:09.438Z,102933.56
2023-04-18T03:44:36.081Z,102933.63
2023-04-18T03:47:03.031Z,102911.09
2023-04-18T03:49:29.626Z,102925.69
2023-04-18T03:51:56.226Z,102932.69
2023-04-18T03:54:22.978Z,102899.94
2023-04-18T03:56:49.643Z,102928.88
2023-04-18T03:59:16.379Z,102943.03
2023-04-18T04:01:43.216Z,102944.16
2023-04-18T04:04:12.089Z,102877.75
2023-04-18T04:06:39.107Z,102941.28
2023-04-18T04:09:06.580Z,102907.72
2023-04-18T04:11:36.242Z,102949.06
2023-04-18T04:14:02.939Z,102956.72
2023-04-18T04:16:29.973Z,102958.63
2023-04-18T04:18:56.657Z,102925.56
2023-04-18T04:21:23.295Z,102950.66
2023-04-18T04:23:50.065Z,102953.28
2023-04-18T04:26:16.751Z,102918.09
2023-04-18T04:28:46.370Z,102946.44
2023-04-18T04:31:13.222Z,102960.28
2023-04-18T04:33:41.021Z,102932.56
2023-04-18T04:36:08.988Z,102975.06
2023-04-18T04:38:38.564Z,102964.44
2023-04-18T04:41:08.048Z,102961.22
2023-04-18T04:43:34.925Z,102970.72
2023-04-18T04:46:03.884Z,102956.72
2023-04-18T04:48:30.595Z,102950.91
2023-04-18T04:50:59.152Z,102967.03
2023-04-18T04:53:28.866Z,102972.44
2023-04-18T04:55:55.698Z,102965.69
2023-04-18T04:58:22.327Z,102970.25
2023-04-18T05:00:50.914Z,102960.78
2023-04-18T05:03:18.057Z,102977.97
2023-04-18T05:05:45.301Z,102952.19
2023-04-18T05:08:12.179Z,102947.53
2023-04-18T05:10:38.867Z,102933.97
2023-04-18T05:13:05.462Z,102953.53
2023-04-18T05:15:32.557Z,102955.25
2023-04-18T05:17:59.464Z,102978.81
2023-04-18T05:20:26.134Z,102965.81
2023-04-18T05:22:52.939Z,102948.53
2023-04-18T05:25:19.872Z,102960.66
2023-04-18T05:27:47.185Z,102979.69
2023-04-18T05:30:14.284Z,102961.47
2023-04-18T05:32:41.026Z,102919.94
2023-04-18T05:35:08.373Z,102942.50
2023-04-18T05:37:35.508Z,102979.19
2023-04-18T05:40:02.819Z,102937.72
2023-04-18T05:42:29.405Z,102952.38
2023-04-18T05:44:56.294Z,102978.25
2023-04-18T05:47:24.202Z,102967.03
2023-04-18T05:49:51.071Z,102962.13
2023-04-18T05:52:17.962Z,102949.63
2023-04-18T05:54:44.582Z,102957.34
2023-04-18T05:57:11.166Z,102996.97
2023-04-18T05:59:38.035Z,102950.28
2023-04-18T06:02:04.713Z,102987.25
2023-04-18T06:04:31.475Z,102978.31
2023-04-18T06:06:58.861Z,102982.47
2023-04-18T06:09:25.423Z,102987.97
2023-04-18T06:11:52.069Z,102957.19
2023-04-18T06:14:18.776Z,102970.78
2023-04-18T06:16:45.898Z,102992.44
2023-04-18T06:19:12.504Z,102992.19
2023-04-18T06:21:42.130Z,102978.78
2023-04-18T06:24:09.350Z,102979.84
2023-04-18T06:26:36.010Z,102996.16
2023-04-18T06:29:03.319Z,102973.19
2023-04-18T06:31:30.051Z,103005.03
2023-04-18T06:33:56.717Z,103008.88
2023-04-18T06:36:23.737Z,102987.44
2023-04-18T06:38:50.371Z,103000.41
2023-04-18T06:41:17.076Z,102983.59
2023-04-18T06:43:59.738Z,103021.16
2023-04-18T06:46:30.555Z,103022.91
2023-04-18T06:48:57.520Z,103024.66
2023-04-18T06:51:24.193Z,103020.09
2023-04-18T06:53:52.968Z,103010.09
2023-04-18T06:56:20.722Z,103006.56
2023-04-18T06:58:48.036Z,102995.56
2023-04-18T07:01:14.744Z,103027.56
2023-04-18T07:03:42.269Z,103002.72
2023-04-18T07:06:10.552Z,102987.78
2023-04-18T07:08:37.820Z,103019.84
2023-04-18T07:11:05.664Z,102999.81
2023-04-18T07:13:32.251Z,103019.91
2023-04-18T07:15:58.924Z,103033.06
2023-04-18T07:18:36.552Z,103007.31
2023-04-18T07:21:07.534Z,103024.00
2023-04-18T07:23:35.060Z,103012.22
2023-04-18T07:26:02.847Z,103006.66
2023-04-18T07:28:31.279Z,103007.00
2023-04-18T07:30:58.858Z,103023.66
2023-04-18T07:33:25.803Z,103012.78
2023-04-18T07:35:53.217Z,103014.53
2023-04-18T07:38:20.322Z,103022.72
2023-04-18T07:40:47.088Z,102992.16
2023-04-18T07:43:13.758Z,102999.00
2023-04-18T07:45:43.334Z,102997.88
2023-04-18T07:48:11.336Z,103012.88
2023-04-18T07:50:38.069Z,102969.06
2023-04-18T07:53:04.889Z,102993.38
2023-04-18T07:55:31.842Z,102999.38
2023-04-18T07:57:58.546Z,102978.09
2023-04-18T08:00:25.392Z,103019.53
2023-04-18T08:02:52.265Z,103027.50
2023-04-18T08:05:20.065Z,103022.44
2023-04-18T08:07:46.916Z,103013.34
2023-04-18T08:10:13.584Z,103012.00
2023-04-18T08:12:40.702Z,102987.78
2023-04-18T08:15:08.527Z,103003.63
2023-04-18T08:17:35.327Z,103018.56
2023-04-18T08:20:05.130Z,103021.72
2023-04-18T08:22:33.590Z,103023.56
2023-04-18T08:25:05.420Z,103015.88
2023-04-18T08:27:32.928Z,103024.84
2023-04-18T08:30:00.822Z,103017.25
2023-04-18T08:32:27.731Z,103021.75
2023-04-18T08:34:54.410Z,103038.25
2023-04-18T08:37:21.342Z,103031.19
2023-04-18T08:39:48.070Z,103001.41
2023-04-18T08:42:21.563Z,103036.84
2023-04-18T08:44:49.242Z,103036.97
2023-04-18T08:47:16.439Z,103014.25
2023-04-18T08:49:46.689Z,103020.19
2023-04-18T08:52:17.169Z,103012.88
2023-04-18T08:54:46.703Z,103032.75
2023-04-18T08:57:18.422Z,103032.75
2023-04-18T08:59:47.678Z,103042.03
2023-04-18T09:02:16.266Z,103024.56
2023-04-18T09:04:45.386Z,103024.22
2023-04-18T09:07:14.571Z,103030.38
2023-04-18T09:09:52.674Z,103020.94
2023-04-18T09:12:25.376Z,103029.59
2023-04-18T09:14:57.997Z,103031.25
2023-04-18T09:17:36.926Z,103006.72
2023-04-18T09:20:05.610Z,103033.03
2023-04-18T09:22:52.793Z,103039.09
2023-04-18T09:25:29.520Z,103012.88
2023-04-18T09:28:02.026Z,103005.78
2023-04-18T09:30:34.908Z,103037.38
2023-04-18T09:33:06.261Z,103004.47
2023-04-18T09:35:33.559Z,103027.56
2023-04-18T09:38:00.295Z,103029.28
2023-04-18T09:40:27.369Z,102992.44
2023-04-18T09:42:57.037Z,103010.91
2023-04-18T09:45:25.289Z,103025.19
2023-04-18T09:47:53.761Z,103023.47
2023-04-18T09:50:20.921Z,103000.47
2023-04-18T09:52:48.623Z,103013.97
2023-04-18T09:55:18.482Z,102975.03
2023-04-18T09:57:47.964Z,103014.19
2023-04-18T10:00:24.886Z,103015.53
2023-04-18T10:03:08.301Z,103015.91
2023-04-18T10:05:38.917Z,103013.53
2023-04-18T10:08:06.842Z,103009.06
2023-04-18T10:10:33.591Z,103004.69
2023-04-18T10:13:03.174Z,103006.97
2023-04-18T10:15:31.277Z,103005.66
2023-04-18T10:18:05.641Z,102984.84
2023-04-18T10:20:35.181Z,103008.50
2023-04-18T10:23:30.911Z,103006.03
2023-04-18T10:25:58.283Z,102984.00
2023-04-18T10:28:26.523Z,103001.50
2023-04-18T10:30:54.677Z,103005.00
2023-04-18T10:33:30.445Z,102969.56
2023-04-18T10:36:12.310Z,103002.72
2023-04-18T10:38:50.956Z,102973.81
2023-04-18T10:41:29.191Z,102999.22
2023-04-18T10:44:08.724Z,103001.47
2023-04-18T10:46:36.917Z,102995.47
2023-04-18T10:49:31.031Z,103012.31
2023-04-18T10:52:00.999Z,102966.13
2023-04-18T10:54:59.248Z,102979.13
2023-04-18T10:57:37.870Z,102982.44
2023-04-18T11:00:06.219Z,102970.66
2023-04-18T11:02:33.516Z,102986.63
2023-04-18T11:05:04.829Z,102951.69
2023-04-18T11:07:37.671Z,102993.38
2023-04-18T11:10:06.182Z,102952.78
2023-04-18T11:12:36.436Z,102969.88
2023-04-18T11:15:09.567Z,102968.72
2023-04-18T11:17:38.407Z,102972.91
2023-04-18T11:20:13.042Z,102976.34
2023-04-18T11:22:51.199Z,102955.22
2023-04-18T11:25:19.882Z,102964.25
2023-04-18T11:27:48.769Z,102966.41
2023-04-18T11:30:16.214Z,102899.50
2023-04-18T11:32:43.213Z,102954.91
2023-04-18T11:35:11.652Z,102959.19
2023-04-18T11:37:39.655Z,102968.84
2023-04-18T11:40:08.980Z,102921.19
2023-04-18T11:42:38.888Z,102952.75
2023-04-18T11:45:16.161Z,102922.41
2023-04-18T11:47:43.441Z,102959.44
2023-04-18T11:50:12.731Z,102961.78
2023-04-18T11:52:42.241Z,102955.88
2023-04-18T11:55:14.409Z,102927.72
2023-04-18T11:57:41.916Z,102958.91
2023-04-18T12:00:10.541Z,102951.97
2023-04-18T12:02:43.287Z,102962.94
2023-04-18T12:05:12.151Z,102907.16
2023-04-18T12:07:45.219Z,102948.69
2023-04-18T12:10:21.150Z,102951.69
2023-04-18T12:12:49.368Z,102959.03
2023-04-18T12:15:17.629Z,102937.56
2023-04-18T12:17:54.509Z,102917.94
2023-04-18T12:20:24.854Z,102944.19
2023-04-18T12:22:53.109Z,102932.84
2023-04-18T12:25:27.399Z,102954.66
2023-04-18T12:27:59.365Z,102959.13
2023-04-18T12:30:29.356Z,102945.38
2023-04-18T12:32:58.109Z,102932.25
2023-04-18T12:35:25.662Z,102942.28
2023-04-18T12:37:55.274Z,102952.84
2023-04-18T12:40:23.257Z,102925.00
2023-04-18T12:42:51.533Z,102926.97
2023-04-18T12:45:19.594Z,102935.81
2023-04-18T12:47:48.330Z,102938.06
2023-04-18T12:50:21.521Z,102914.16
2023-04-18T12:52:48.826Z,102889.41
2023-04-18T12:55:15.805Z,102933.44
2023-04-18T12:57:44.259Z,102904.97
2023-04-18T13:00:13.051Z,102899.75
2023-04-18T13:02:41.875Z,102932.41
2023-04-18T13:05:10.736Z,102854.84
2023-04-18T13:07:40.492Z,102933.91
2023-04-18T13:10:09.014Z,102932.28
2023-04-18T13:12:36.280Z,102874.88
2023-04-18T13:15:04.286Z,102905.19
2023-04-18T13:17:31.134Z,102920.03
2023-04-18T13:19:58.247Z,102938.47
2023-04-18T13:22:24.973Z,102883.63
2023-04-18T13:24:51.661Z,102912.47
2023-04-18T13:27:18.728Z,102926.34
2023-04-18T13:29:47.707Z,102896.25
2023-04-18T13:32:14.404Z,102897.84
2023-04-18T13:34:46.530Z,102915.63
2023-04-18T13:37:14.443Z,102890.56
2023-04-18T13:39:41.386Z,102918.19
2023-04-18T13:42:09.018Z,102914.59
2023-04-18T13:44:37.316Z,102902.81
2023-04-18T13:47:05.542Z,102919.00
2023-04-18T13:49:33.878Z,102868.03
2023-04-18T13:52:01.049Z,102900.88
2023-04-18T13:54:29.796Z,102925.69
2023-04-18T13:57:04.644Z,102920.47
2023-04-18T13:59:32.554Z,102926.03
2023-04-18T14:01:59.748Z,102915.22
2023-04-18T14:04:27.653Z,102910.56
2023-04-18T14:06:54.958Z,102903.44
2023-04-18T14:09:21.755Z,102914.44
2023-04-18T14:11:48.856Z,102898.53
2023-04-18T14:14:15.588Z,102893.41
2023-04-18T14:16:42.249Z,102900.56
2023-04-18T14:19:09.020Z,102912.81
2023-04-18T14:21:36.057Z,102895.09
2023-04-18T14:24:03.489Z,102901.09
2023-04-18T14:26:31.158Z,102908.75
2023-04-18T14:28:58.193Z,102896.78
2023-04-18T14:31:24.925Z,102900.88
2023-04-18T14:33:52.270Z,102905.16
2023-04-18T14:36:19.434Z,102896.50
2023-04-18T14:38:49.583Z,102906.00
2023-04-18T14:41:16.936Z,102909.19
2023-04-18T14:43:43.862Z,102914.94
2023-04-18T14:46:16.579Z,102884.41
2023-04-18T14:48:47.487Z,102882.56
2023-04-18T14:51:17.257Z,102904.00
2023-04-18T14:53:44.967Z,102917.88
2023-04-18T14:56:11.979Z,102908.78
2023-04-18T14:58:38.618Z,102897.38
2023-04-18T15:01:05.782Z,102900.59
2023-04-18T15:03:33.534Z,102889.50
2023-04-18T15:06:00.464Z,102907.44
2023-04-18T15:08:27.297Z,102909.03
2023-04-18T15:10:54.105Z,102888.63
2023-04-18T15:13:20.869Z,102897.38
2023-04-18T15:15:55.278Z,102897.03
2023-04-18T15:18:22.082Z,102868.31
2023-04-18T15:20:48.778Z,102882.13
2023-04-18T15:23:16.043Z,102886.75
2023-04-18T15:25:45.206Z,102905.34
2023-04-18T15:28:14.677Z,102895.75
2023-04-18T15:30:41.520Z,102898.69
2023-04-18T15:33:08.571Z,102896.78
2023-04-18T15:35:35.780Z,102867.28
2023-04-18T15:38:02.584Z,102867.28
2023-04-18T15:40:29.288Z,102893.78
2023-04-18T15:42:57.791Z,102881.97
2023-04-18T15:45:24.559Z,102894.53
2023-04-18T15:47:51.717Z,102900.63
2023-04-18T15:50:18.619Z,102881.53
2023-04-18T15:52:46.163Z,102888.75
2023-04-18T15:55:13.540Z,102897.69
2023-04-18T15:57:41.678Z,102896.25
2023-04-18T16:00:21.068Z,102897.78
2023-04-18T16:02:48.095Z,102891.50
2023-04-18T16:05:15.366Z,102888.84
2023-04-18T16:07:43.282Z,102917.00
2023-04-18T16:10:11.290Z,102848.13
2023-04-18T16:12:39.081Z,102894.91
2023-04-18T16:15:07.330Z,102905.81
2023-04-18T16:17:34.531Z,102861.31
2023-04-18T16:20:01.291Z,102885.72
2023-04-18T16:22:28.159Z,102918.59
2023-04-18T16:24:54.925Z,102917.81
2023-04-18T16:27:21.989Z,102893.72
2023-04-18T16:29:48.687Z,102918.22
2023-04-18T16:32:15.655Z,102888.44
2023-04-18T16:34:42.249Z,102918.72
2023-04-18T16:37:09.029Z,102891.59
2023-04-18T16:39:35.783Z,102912.56
2023-04-18T16:42:03.807Z,102913.03
2023-04-18T16:44:30.824Z,102902.88
2023-04-18T16:46:57.615Z,102907.53
2023-04-18T16:49:24.344Z,102873.25
2023-04-18T16:51:51.348Z,102863.47
2023-04-18T16:54:17.986Z,102916.47
2023-04-18T16:56:44.865Z,102895.06
2023-04-18T16:59:11.820Z,102897.16
2023-04-18T17:01:38.796Z,102907.41
2023-04-18T17:04:05.627Z,102899.06
2023-04-18T17:06:32.946Z,102926.97
2023-04-18T17:09:00.155Z,102911.63
2023-04-18T17:11:26.840Z,102911.97
2023-04-18T17:13:53.862Z,102909.78
2023-04-18T17:16:20.689Z,102913.28
2023-04-18T17:18:47.364Z,102933.44
2023-04-18T17:21:14.330Z,102913.66
2023-04-18T17:23:42.509Z,102926.94
2023-04-18T17:26:10.009Z,102935.88
2023-04-18T17:28:37.022Z,102912.09
2023-04-18T17:31:03.955Z,102941.72
2023-04-18T17:33:31.161Z,102925.25
2023-04-18T17:35:58.361Z,102940.03
2023-04-18T17:38:25.233Z,102923.25
2023-04-18T17:40:59.660Z,102936.34
2023-04-18T17:43:26.872Z,102912.69
2023-04-18T17:45:53.742Z,102908.38
2023-04-18T17:48:20.539Z,102891.31
2023-04-18T17:50:47.338Z,102904.38
2023-04-18T17:53:14.098Z,102933.56
2023-04-18T17:55:41.227Z,102925.09
2023-04-18T17:58:08.186Z,102916.13
2023-04-18T18:00:35.142Z,102920.75
2023-04-18T18:03:03.012Z,102926.75
2023-04-18T18:05:30.442Z,102903.75
2023-04-18T18:07:57.677Z,102948.75
2023-04-18T18:10:25.083Z,102937.22
2023-04-18T18:12:51.961Z,102936.47
2023-04-18T18:15:19.496Z,102935.97
2023-04-18T18:17:49.198Z,102921.28
2023-04-18T18:20:16.267Z,102897.69
2023-04-18T18:22:43.605Z,102955.38
2023-04-18T18:25:10.860Z,102946.16
2023-04-18T18:27:37.675Z,102967.19
2023-04-18T18:30:04.886Z,102933.75
2023-04-18T18:32:31.623Z,102956.34
2023-04-18T18:34:58.409Z,102942.56
2023-04-18T18:37:26.118Z,102952.13
2023-04-18T18:39:59.981Z,102942.00
2023-04-18T18:42:27.271Z,102950.22
2023-04-18T18:44:54.711Z,102963.06
2023-04-18T18:47:21.685Z,102961.19
2023-04-18T18:49:48.838Z,102935.41
2023-04-18T18:52:16.035Z,102949.28
2023-04-18T18:54:42.803Z,102962.53
2023-04-18T18:57:09.647Z,102966.84
2023-04-18T18:59:36.275Z,102904.63
2023-04-18T19:02:03.294Z,102942.31
2023-04-18T19:04:30.443Z,102956.19
2023-04-18T19:06:57.190Z,102974.34
2023-04-18T19:09:24.227Z,102969.53
2023-04-18T19:11:51.521Z,102979.13
2023-04-18T19:14:18.132Z,102966.50
2023-04-18T19:16:44.948Z,102981.84
2023-04-18T19:19:12.052Z,102973.53
2023-04-18T19:21:39.829Z,102959.34
2023-04-18T19:24:07.554Z,102965.53
2023-04-18T19:26:34.254Z,102992.25
2023-04-18T19:29:00.999Z,102987.78
2023-04-18T19:31:28.147Z,102966.56
2023-04-18T19:33:55.066Z,102947.81
2023-04-18T19:36:22.594Z,102992.56
2023-04-18T19:38:49.355Z,102984.06
2023-04-18T19:41:16.330Z,102994.47
2023-04-18T19:43:43.273Z,102994.00
2023-04-18T19:46:10.485Z,102999.28
2023-04-18T19:48:38.111Z,103004.66
2023-04-18T19:51:04.846Z,102939.66
2023-04-18T19:53:31.825Z,103002.38
2023-04-18T19:55:58.544Z,102983.50
2023-04-18T19:58:35.970Z,103008.75
2023-04-18T20:01:05.830Z,102979.63
2023-04-18T20:03:35.375Z,103004.56
2023-04-18T20:06:02.322Z,103003.31
2023-04-18T20:08:29.479Z,102978.44
2023-04-18T20:10:56.503Z,103016.47
2023-04-18T20:13:23.751Z,103008.78
2023-04-18T20:15:50.492Z,103005.66
2023-04-18T20:18:17.276Z,102991.75
2023-04-18T20:20:44.066Z,102999.94
2023-04-18T20:23:11.371Z,103000.94
2023-04-18T20:25:38.053Z,103008.28
2023-04-18T20:28:05.007Z,103021.22
2023-04-18T20:30:31.708Z,103027.44
2023-04-18T20:32:58.484Z,103022.13
2023-04-18T20:35:28.005Z,103024.09
2023-04-18T20:37:55.087Z,103013.72
2023-04-18T20:40:21.954Z,103013.81
2023-04-18T20:42:48.662Z,103017.31
2023-04-18T20:45:15.398Z,102997.25
2023-04-18T20:47:42.395Z,103014.66
2023-04-18T20:50:10.342Z,103008.41
2023-04-18T20:52:37.705Z,102993.94
2023-04-18T20:55:04.732Z,103030.09
2023-04-18T20:57:31.422Z,103024.72
2023-04-18T20:59:58.725Z,102998.28
2023-04-18T21:02:26.466Z,103013.63
2023-04-18T21:04:54.018Z,102994.22
2023-04-18T21:07:21.063Z,103002.00
2023-04-18T21:09:47.682Z,103007.16
2023-04-18T21:12:14.326Z,103014.00
2023-04-18T21:14:41.188Z,103033.03
2023-04-18T21:17:09.660Z,102966.44
2023-04-18T21:19:36.999Z,103031.31
2023-04-18T21:22:04.361Z,103035.84
2023-04-18T21:24:31.692Z,103040.34
2023-04-18T21:26:58.777Z,103026.50
2023-04-18T21:29:26.530Z,102999.03
2023-04-18T21:31:53.720Z,103036.91
2023-04-18T21:34:20.752Z,102963.16
2023-04-18T21:36:47.658Z,103032.06
2023-04-18T21:39:14.379Z,103041.66
2023-04-18T21:41:42.021Z,103027.06
2023-04-18T21:44:08.640Z,102982.47
2023-04-18T21:46:35.245Z,103008.22
2023-04-18T21:49:02.028Z,103022.06
2023-04-18T21:51:28.762Z,102984.31
2023-04-18T21:53:55.674Z,103007.47
2023-04-18T21:56:22.428Z,103021.34
2023-04-18T21:58:49.316Z,103021.44
2023-04-18T22:01:16.047Z,103012.94
2023-04-18T22:03:43.227Z,103027.09
2023-04-18T22:06:10.451Z,103015.66
2023-04-18T22:08:37.137Z,103013.94
2023-04-18T22:13:39.184Z,103027.22
2023-04-18T22:16:09.510Z,103016.88
2023-04-18T22:18:37.868Z,102998.91
2023-04-18T22:21:04.945Z,103006.09
2023-04-18T22:23:31.696Z,103002.47
2023-04-18T22:25:58.543Z,102990.63
2023-04-18T22:28:27.944Z,103000.13
2023-04-18T22:30:54.654Z,103043.34
2023-04-18T22:33:21.287Z,103047.59
2023-04-18T22:35:48.745Z,103014.94
2023-04-18T22:38:15.852Z,103031.44
2023-04-18T22:40:42.475Z,103001.56
2023-04-18T22:43:09.172Z,102962.09
2023-04-18T22:45:35.860Z,103021.22
2023-04-18T22:48:02.498Z,102963.09
2023-04-18T22:50:30.344Z,103020.66
2023-04-18T22:52:57.453Z,103042.25
2023-04-18T22:55:24.193Z,103037.97
2023-04-18T22:57:51.066Z,103026.22
2023-04-18T23:00:17.795Z,103028.88
2023-04-18T23:02:44.565Z,103041.81
2023-04-18T23:05:11.882Z,103046.25
2023-04-18T23:07:38.567Z,102968.41
2023-04-18T23:10:08.628Z,103026.78
2023-04-18T23:12:35.458Z,103014.75
2023-04-18T23:15:02.067Z,103050.16
2023-04-18T23:17:28.728Z,103045.78
2023-04-18T23:19:55.641Z,102968.78
2023-04-18T23:22:24.139Z,103022.03
2023-04-18T23:24:50.910Z,103022.03
2023-04-18T23:27:19.628Z,103039.34
2023-04-18T23:29:49.240Z,103028.19
2023-04-18T23:32:16.389Z,103047.28
2023-04-18T23:34:43.142Z,103036.06
2023-04-18T23:37:09.771Z,103003.31
2023-04-18T23:39:36.398Z,103037.78
2023-04-18T23:42:03.249Z,103047.41
2023-04-18T23:44:29.862Z,103032.91
2023-04-18T23:46:56.483Z,103039.09
2023-04-18T23:49:23.259Z,103037.16
2023-04-18T23:51:49.910Z,103041.47
2023-04-18T23:54:16.748Z,102971.19
2023-04-18T23:56:43.653Z,103034.75
2023-04-18T23:59:10.257Z,103026.81
